Time;durP1;ratioP1;P1;durP2;ratioP2;P2;SDS_P1;SDS_P2;PMS_P1;PMS_P2;Temp;Humidity;BMP_temperature;BMP_pressure;BME280_temperature;BME280_humidity;BME280_pressure;Samples;Min_cycle;Max_cycle;Signal;HPM_P1;HPM_P2
2021/12/11 00:02:10;;;;;;;30.17;15.57;;;;;;;;;;4992758;28;20034;-76
2021/12/11 00:04:39;;;;;;;30.75;16.23;;;;;;;;;;4993343;28;20042;-75
2021/12/11 00:07:09;;;;;;;33.97;15.20;;;;;;;;;;4992885;28;20038;-76
2021/12/11 00:09:39;;;;;;;27.92;15.48;;;;;;;;;;4992743;28;20042;-76
2021/12/11 00:12:10;;;;;;;30.00;14.13;;;;;;;;;;4992362;28;20038;-71
2021/12/11 00:14:40;;;;;;;25.92;14.25;;;;;;;;;;4992223;28;20034;-71
2021/12/11 00:17:07;;;;;;;29.15;16.15;;;;;;;;;;4992108;28;20046;-76
2021/12/11 00:19:40;;;;;;;30.48;14.90;;;;;;;;;;4992173;28;20049;-75
2021/12/11 00:22:15;;;;;;;31.90;15.73;;;;;;;;;;4991803;28;20035;-76
2021/12/11 00:24:41;;;;;;;30.05;14.07;;;;;;;;;;4983767;28;20039;-75
2021/12/11 00:27:25;;;;;;;28.02;14.63;;;;;;;;;;4973463;28;20031;-75
2021/12/11 00:29:52;;;;;;;29.60;15.10;;;;;;;;;;4990157;28;20049;-74
2021/12/11 00:32:25;;;;;;;31.02;15.68;;;;;;;;;;4992892;28;20046;-75
2021/12/11 00:34:56;;;;;;;28.60;16.05;;;;;;;;;;4991383;28;20050;-74
2021/12/11 00:37:24;;;;;;;26.45;14.07;;;;;;;;;;4991738;28;20384;-74
2021/12/11 00:40:07;;;;;;;24.38;13.93;;;;;;;;;;4992464;28;20037;-74
2021/12/11 00:42:34;;;;;;;29.33;15.45;;;;;;;;;;4992421;28;20049;-74
2021/12/11 00:45:14;;;;;;;28.23;15.52;;;;;;;;;;4988351;28;20034;-75
2021/12/11 00:48:02;;;;;;;27.90;14.35;;;;;;;;;;4992012;28;20485;-75
2021/12/11 00:50:50;;;;;;;26.70;14.45;;;;;;;;;;4990526;28;20038;-75
2021/12/11 00:53:26;;;;;;;28.55;16.42;;;;;;;;;;4991145;28;20416;-75
2021/12/11 00:55:58;;;;;;;29.95;15.43;;;;;;;;;;4991762;28;20049;-77
2021/12/11 00:58:25;;;;;;;30.25;15.95;;;;;;;;;;4990415;28;20041;-74
2021/12/11 01:01:00;;;;;;;25.33;14.88;;;;;;;;;;4991903;28;20034;-76
2021/12/11 01:03:39;;;;;;;27.23;14.80;;;;;;;;;;4991944;28;20372;-75
2021/12/11 01:06:28;;;;;;;30.73;15.05;;;;;;;;;;4991771;28;20046;-76
2021/12/11 01:09:25;;;;;;;24.80;14.25;;;;;;;;;;4990392;28;20042;-77
2021/12/11 01:12:00;;;;;;;26.98;14.13;;;;;;;;;;4986464;28;20354;-75
2021/12/11 01:14:52;;;;;;;27.63;14.95;;;;;;;;;;4991702;28;20057;-75
2021/12/11 01:17:58;;;;;;;25.10;14.75;;;;;;;;;;4991753;28;20042;-75
2021/12/11 01:20:36;;;;;;;22.92;14.00;;;;;;;;;;4991331;28;20149;-75
2021/12/11 01:23:15;;;;;;;25.05;14.05;;;;;;;;;;4991809;28;20523;-75
2021/12/11 01:25:41;;;;;;;26.20;14.93;;;;;;;;;;4991202;28;20049;-74
2021/12/11 01:28:08;;;;;;;25.35;13.70;;;;;;;;;;4991742;28;20034;-75
2021/12/11 01:30:38;;;;;;;27.00;14.57;;;;;;;;;;4991142;28;20065;-75
2021/12/11 01:33:06;;;;;;;25.67;14.40;;;;;;;;;;4990665;28;20049;-76
2021/12/11 01:35:33;;;;;;;25.20;14.63;;;;;;;;;;4992391;28;20057;-76
2021/12/11 01:38:04;;;;;;;22.52;13.65;;;;;;;;;;4993749;28;20038;-77
2021/12/11 01:40:31;;;;;;;21.63;13.02;;;;;;;;;;4995157;28;20050;-76
2021/12/11 01:43:00;;;;;;;23.33;13.82;;;;;;;;;;4994498;28;20046;-76
2021/12/11 01:45:27;;;;;;;26.90;15.02;;;;;;;;;;4994925;28;20523;-76
2021/12/11 01:47:53;;;;;;;24.83;14.57;;;;;;;;;;4993865;28;20046;-77
2021/12/11 01:50:31;;;;;;;26.52;14.93;;;;;;;;;;4995348;28;20041;-76
2021/12/11 01:53:00;;;;;;;23.48;14.20;;;;;;;;;;4994697;28;20053;-76
2021/12/11 01:55:33;;;;;;;24.58;13.65;;;;;;;;;;4994471;28;20425;-76
2021/12/11 01:58:00;;;;;;;25.13;14.55;;;;;;;;;;4994274;28;20053;-76
2021/12/11 02:00:49;;;;;;;26.00;14.15;;;;;;;;;;4994335;28;20083;-76
2021/12/11 02:03:21;;;;;;;24.30;13.60;;;;;;;;;;4994281;28;20026;-76
2021/12/11 02:05:49;;;;;;;26.63;14.77;;;;;;;;;;4994454;28;20045;-76
2021/12/11 02:08:19;;;;;;;22.73;12.70;;;;;;;;;;4994138;28;20049;-76
2021/12/11 02:10:51;;;;;;;24.77;14.07;;;;;;;;;;4992751;28;20054;-76
2021/12/11 02:13:27;;;;;;;25.88;13.50;;;;;;;;;;4994133;28;20057;-76
2021/12/11 02:15:54;;;;;;;25.85;13.93;;;;;;;;;;4994433;28;20042;-76
2021/12/11 02:18:32;;;;;;;19.08;11.80;;;;;;;;;;4994207;28;20033;-76
2021/12/11 02:21:14;;;;;;;23.27;13.25;;;;;;;;;;4994141;28;20058;-76
2021/12/11 02:23:41;;;;;;;;;;;;;;;;;;4994569;28;20049;-76
2021/12/11 02:26:14;;;;;;;22.67;13.15;;;;;;;;;;4994103;28;19921;-76
2021/12/11 02:28:48;;;;;;;22.25;13.60;;;;;;;;;;4993760;28;20038;-76
2021/12/11 02:31:32;;;;;;;22.85;12.88;;;;;;;;;;4993388;28;20038;-76
2021/12/11 02:34:10;;;;;;;20.02;12.48;;;;;;;;;;4993440;28;20035;-77
2021/12/11 02:36:43;;;;;;;23.63;13.45;;;;;;;;;;4993391;28;20049;-76
2021/12/11 02:39:14;;;;;;;20.73;12.65;;;;;;;;;;4992498;28;20054;-76
2021/12/11 02:42:00;;;;;;;21.02;12.38;;;;;;;;;;4991855;28;20053;-76
2021/12/11 02:44:26;;;;;;;18.23;10.52;;;;;;;;;;4992893;28;20325;-76
2021/12/11 02:47:18;;;;;;;20.63;12.52;;;;;;;;;;4993006;28;20037;-76
2021/12/11 02:49:52;;;;;;;21.63;12.07;;;;;;;;;;4974503;28;20042;-76
2021/12/11 02:52:54;;;;;;;20.98;12.52;;;;;;;;;;5012538;28;20038;-76
2021/12/11 02:55:22;;;;;;;22.42;13.18;;;;;;;;;;5005656;28;20042;-75
2021/12/11 02:57:58;;;;;;;23.10;12.98;;;;;;;;;;5005879;28;20034;-77
2021/12/11 03:00:49;;;;;;;22.23;13.35;;;;;;;;;;5007612;28;20038;-78
2021/12/11 03:03:21;;;;;;;21.83;11.50;;;;;;;;;;5003302;28;20046;-77
2021/12/11 03:05:59;;;;;;;24.33;12.88;;;;;;;;;;5009896;28;20045;-79
2021/12/11 03:08:25;;;;;;;18.95;11.90;;;;;;;;;;5008080;28;20043;-76
2021/12/11 03:10:55;;;;;;;21.63;12.55;;;;;;;;;;5010898;28;20257;-76
2021/12/11 03:13:22;;;;;;;22.10;12.35;;;;;;;;;;5010733;28;20026;-77
2021/12/11 03:15:49;;;;;;;21.40;11.75;;;;;;;;;;5025888;28;20365;-75
2021/12/11 03:18:15;;;;;;;24.80;12.15;;;;;;;;;;5011804;28;20034;-75
2021/12/11 03:20:42;;;;;;;22.55;13.10;;;;;;;;;;5011253;28;20034;-76
2021/12/11 03:23:08;;;;;;;23.20;12.40;;;;;;;;;;4999812;28;20049;-76
2021/12/11 03:25:35;;;;;;;20.60;11.32;;;;;;;;;;4995255;28;20500;-76
2021/12/11 03:28:03;;;;;;;18.40;10.90;;;;;;;;;;4993890;28;20053;-75
2021/12/11 03:30:34;;;;;;;21.98;11.27;;;;;;;;;;5011105;28;20031;-78
2021/12/11 03:33:05;;;;;;;21.13;11.27;;;;;;;;;;4994249;28;20081;-77
2021/12/11 03:35:31;;;;;;;21.95;10.90;;;;;;;;;;4993457;28;20042;-77
2021/12/11 03:37:58;;;;;;;24.23;12.00;;;;;;;;;;4994264;28;20433;-77
2021/12/11 03:40:25;;;;;;;20.05;11.27;;;;;;;;;;4994289;28;20058;-76
2021/12/11 03:42:53;;;;;;;20.60;12.13;;;;;;;;;;4993629;28;20424;-77
2021/12/11 03:45:30;;;;;;;20.52;12.30;;;;;;;;;;4992112;28;20045;-76
2021/12/11 03:48:13;;;;;;;21.85;12.18;;;;;;;;;;4993712;28;20045;-77
2021/12/11 03:50:40;;;;;;;18.02;10.93;;;;;;;;;;4993960;28;20057;-77
2021/12/11 03:53:07;;;;;;;22.27;11.43;;;;;;;;;;4993685;28;20038;-76
2021/12/11 03:55:46;;;;;;;21.60;12.70;;;;;;;;;;4994001;28;20330;-77
2021/12/11 03:58:15;;;;;;;20.10;11.63;;;;;;;;;;4992227;28;20045;-77
2021/12/11 04:01:00;;;;;;;20.88;11.45;;;;;;;;;;4992730;28;20042;-76
2021/12/11 04:03:35;;;;;;;19.77;12.18;;;;;;;;;;4992792;28;20402;-76
2021/12/11 04:06:05;;;;;;;22.23;12.85;;;;;;;;;;4992099;28;20026;-77
2021/12/11 04:08:40;;;;;;;19.48;12.07;;;;;;;;;;4992109;28;20030;-77
2021/12/11 04:11:12;;;;;;;23.85;12.57;;;;;;;;;;4991977;28;20034;-77
2021/12/11 04:13:39;;;;;;;20.98;12.00;;;;;;;;;;4991370;28;20030;-77
2021/12/11 04:16:07;;;;;;;22.92;12.00;;;;;;;;;;4991430;28;20031;-76
2021/12/11 04:18:33;;;;;;;21.52;12.38;;;;;;;;;;4991279;28;20034;-77
2021/12/11 04:20:59;;;;;;;22.05;12.48;;;;;;;;;;4991190;28;20042;-76
2021/12/11 04:23:25;;;;;;;19.33;11.82;;;;;;;;;;4990146;28;20030;-76
2021/12/11 04:25:55;;;;;;;23.27;12.68;;;;;;;;;;4991358;28;20034;-76
2021/12/11 04:28:22;;;;;;;23.05;12.68;;;;;;;;;;4991632;28;20400;-76
2021/12/11 04:30:51;;;;;;;23.15;12.73;;;;;;;;;;4991639;28;20098;-76
2021/12/11 04:33:17;;;;;;;21.23;12.68;;;;;;;;;;4991360;28;20121;-76
2021/12/11 04:35:44;;;;;;;23.85;12.93;;;;;;;;;;4991154;28;20046;-77
2021/12/11 04:38:12;;;;;;;28.00;14.10;;;;;;;;;;4991631;28;20046;-77
2021/12/11 04:40:42;;;;;;;26.02;13.30;;;;;;;;;;4991402;28;20034;-76
2021/12/11 04:43:14;;;;;;;20.60;12.10;;;;;;;;;;4991280;28;20034;-76
2021/12/11 04:45:49;;;;;;;24.52;13.23;;;;;;;;;;4991460;28;20047;-76
2021/12/11 04:48:47;;;;;;;23.88;14.65;;;;;;;;;;4973826;28;20091;-76
2021/12/11 05:00:11;;;;;;;21.45;13.00;;;;;;;;;;4951303;28;20034;-75
2021/12/11 05:05:28;;;;;;;25.27;14.35;;;;;;;;;;4932879;29;20032;-75
2021/12/11 05:08:11;;;;;;;25.98;14.35;;;;;;;;;;4934632;29;20087;-75
2021/12/11 05:10:53;;;;;;;27.98;15.32;;;;;;;;;;4934702;29;20051;-76
2021/12/11 05:13:21;;;;;;;23.00;13.98;;;;;;;;;;4936486;29;20050;-75
2021/12/11 05:15:50;;;;;;;27.52;14.75;;;;;;;;;;4933506;29;20532;-76
2021/12/11 05:18:19;;;;;;;24.38;14.95;;;;;;;;;;4932456;29;20044;-77
2021/12/11 05:20:49;;;;;;;29.55;16.08;;;;;;;;;;4930680;29;20039;-77
2021/12/11 05:23:16;;;;;;;31.05;17.13;;;;;;;;;;4929435;29;20047;-77
2021/12/11 05:25:44;;;;;;;27.02;14.95;;;;;;;;;;4929066;29;20044;-78
2021/12/11 05:28:11;;;;;;;26.38;15.07;;;;;;;;;;4929216;29;20508;-77
2021/12/11 05:30:40;;;;;;;25.15;15.60;;;;;;;;;;4955550;28;20047;-82
2021/12/11 05:33:06;;;;;;;30.20;17.42;;;;;;;;;;4977533;28;20416;-79
2021/12/11 05:35:35;;;;;;;28.70;17.25;;;;;;;;;;4971478;28;20039;-79
2021/12/11 05:38:04;;;;;;;32.78;18.25;;;;;;;;;;4984765;28;20042;-78
2021/12/11 05:40:31;;;;;;;41.45;21.65;;;;;;;;;;4986496;28;20433;-79
2021/12/11 05:42:57;;;;;;;34.55;18.45;;;;;;;;;;4990089;28;20046;-79
2021/12/11 05:45:24;;;;;;;30.23;18.77;;;;;;;;;;4989010;28;20039;-79
2021/12/11 05:47:52;;;;;;;32.22;18.42;;;;;;;;;;4982753;28;20039;-78
2021/12/11 05:50:23;;;;;;;34.20;18.65;;;;;;;;;;4988935;28;20053;-78
2021/12/11 05:52:50;;;;;;;35.03;18.45;;;;;;;;;;4990181;28;20046;-78
2021/12/11 05:55:19;;;;;;;36.83;18.83;;;;;;;;;;4990656;28;20057;-78
2021/12/11 05:57:51;;;;;;;36.90;19.25;;;;;;;;;;4990399;28;20385;-78
2021/12/11 06:00:21;;;;;;;31.60;17.92;;;;;;;;;;4989920;28;20480;-78
2021/12/11 06:02:47;;;;;;;34.50;18.30;;;;;;;;;;4990408;28;20035;-77
2021/12/11 06:05:13;;;;;;;39.33;19.58;;;;;;;;;;4990681;28;20048;-77
2021/12/11 06:07:43;;;;;;;31.77;18.13;;;;;;;;;;4990739;28;20487;-77
2021/12/11 06:10:16;;;;;;;36.10;19.20;;;;;;;;;;4990648;28;20047;-77
2021/12/11 06:12:45;;;;;;;36.67;19.30;;;;;;;;;;4990990;28;20042;-77
2021/12/11 06:15:11;;;;;;;39.47;19.23;;;;;;;;;;4990831;28;20468;-77
2021/12/11 06:17:42;;;;;;;37.97;19.40;;;;;;;;;;4990709;28;20042;-77
2021/12/11 06:20:11;;;;;;;35.83;18.35;;;;;;;;;;4990713;28;20480;-77
2021/12/11 06:22:38;;;;;;;37.53;20.27;;;;;;;;;;4993243;28;20492;-77
2021/12/11 06:25:11;;;;;;;36.75;20.02;;;;;;;;;;4993922;28;20419;-77
2021/12/11 06:27:38;;;;;;;34.50;20.08;;;;;;;;;;4993972;28;20495;-77
2021/12/11 06:30:06;;;;;;;38.78;19.80;;;;;;;;;;4992390;28;20528;-77
2021/12/11 06:32:32;;;;;;;35.10;19.10;;;;;;;;;;4993721;28;20377;-77
2021/12/11 06:35:00;;;;;;;41.38;21.02;;;;;;;;;;4993648;28;20142;-77
2021/12/11 06:37:26;;;;;;;39.67;20.55;;;;;;;;;;4993629;28;20042;-77
2021/12/11 06:39:53;;;;;;;43.70;22.20;;;;;;;;;;4993793;28;20030;-77
2021/12/11 06:42:20;;;;;;;41.40;20.65;;;;;;;;;;4993369;28;20572;-77
2021/12/11 06:44:47;;;;;;;42.58;21.00;;;;;;;;;;4992597;28;20151;-77
2021/12/11 06:47:14;;;;;;;43.75;20.98;;;;;;;;;;4993610;28;20365;-77
2021/12/11 06:49:41;;;;;;;43.50;22.65;;;;;;;;;;4993697;28;20497;-77
2021/12/11 06:52:18;;;;;;;55.67;28.33;;;;;;;;;;4993677;28;20042;-76
2021/12/11 06:54:45;;;;;;;68.82;34.80;;;;;;;;;;4992334;28;20039;-77
2021/12/11 06:57:11;;;;;;;54.40;26.60;;;;;;;;;;4994136;28;20049;-77
2021/12/11 06:59:44;;;;;;;42.25;22.25;;;;;;;;;;4993645;28;20030;-77
2021/12/11 07:02:10;;;;;;;41.65;21.13;;;;;;;;;;4993604;28;20392;-77
2021/12/11 07:04:37;;;;;;;40.30;21.25;;;;;;;;;;4994191;28;20046;-77
2021/12/11 07:07:04;;;;;;;44.70;22.52;;;;;;;;;;4988038;28;20042;-79
2021/12/11 07:09:30;;;;;;;45.30;22.05;;;;;;;;;;4992337;28;20038;-78
2021/12/11 07:11:58;;;;;;;43.55;21.73;;;;;;;;;;4990946;28;20049;-77
2021/12/11 07:14:27;;;;;;;42.53;20.80;;;;;;;;;;4992300;28;20038;-78
2021/12/11 07:16:53;;;;;;;40.42;21.00;;;;;;;;;;4992195;28;20041;-78
2021/12/11 07:19:19;;;;;;;42.92;21.88;;;;;;;;;;4991937;28;20045;-78
2021/12/11 07:21:50;;;;;;;42.60;20.05;;;;;;;;;;4991314;28;20033;-77
2021/12/11 07:24:19;;;;;;;45.35;20.10;;;;;;;;;;4991158;28;20408;-79
2021/12/11 07:26:46;;;;;;;44.17;19.63;;;;;;;;;;4992711;28;20042;-77
2021/12/11 07:29:19;;;;;;;42.08;19.75;;;;;;;;;;4991482;28;20050;-77
2021/12/11 07:31:46;;;;;;;38.30;18.50;;;;;;;;;;4993119;28;20042;-77
2021/12/11 07:34:13;;;;;;;34.22;17.88;;;;;;;;;;4992861;28;20397;-77
2021/12/11 07:36:40;;;;;;;35.88;18.80;;;;;;;;;;4993361;28;20049;-78
2021/12/11 07:39:11;;;;;;;34.53;18.08;;;;;;;;;;4993950;28;20035;-78
2021/12/11 07:41:37;;;;;;;38.92;18.92;;;;;;;;;;4992016;28;20042;-78
2021/12/11 07:44:04;;;;;;;42.72;19.27;;;;;;;;;;4991570;28;20503;-78
2021/12/11 07:46:31;;;;;;;37.83;17.50;;;;;;;;;;4991889;28;20034;-78
2021/12/11 07:48:58;;;;;;;39.05;18.65;;;;;;;;;;4993698;28;20045;-78
2021/12/11 07:51:26;;;;;;;38.00;18.17;;;;;;;;;;4994291;28;20500;-78
2021/12/11 07:53:53;;;;;;;34.13;18.23;;;;;;;;;;4993911;28;20042;-77
2021/12/11 07:56:20;;;;;;;38.15;17.83;;;;;;;;;;4993413;28;20452;-77
2021/12/11 07:58:48;;;;;;;33.90;17.80;;;;;;;;;;4992749;28;20030;-77
2021/12/11 08:01:14;;;;;;;38.72;19.35;;;;;;;;;;4992969;28;20038;-77
2021/12/11 08:03:41;;;;;;;37.40;18.63;;;;;;;;;;4993491;28;20059;-77
2021/12/11 08:06:09;;;;;;;34.35;16.88;;;;;;;;;;4992873;28;20042;-78
2021/12/11 08:08:37;;;;;;;33.67;16.67;;;;;;;;;;4993754;28;20373;-78
2021/12/11 08:11:11;;;;;;;30.05;16.25;;;;;;;;;;4992881;28;20046;-78
2021/12/11 08:13:38;;;;;;;30.60;16.65;;;;;;;;;;4992686;28;20041;-78
2021/12/11 08:16:05;;;;;;;31.92;16.27;;;;;;;;;;4992843;28;20030;-78
2021/12/11 08:18:30;;;;;;;26.10;15.20;;;;;;;;;;4992878;28;20034;-78
2021/12/11 08:20:56;;;;;;;29.48;16.65;;;;;;;;;;4991641;28;20118;-78
2021/12/11 08:23:23;;;;;;;28.73;15.88;;;;;;;;;;4992813;28;20496;-78
2021/12/11 08:25:53;;;;;;;26.33;16.10;;;;;;;;;;4992985;28;20046;-78
2021/12/11 08:28:24;;;;;;;25.98;15.73;;;;;;;;;;4992789;28;20038;-78
2021/12/11 08:30:51;;;;;;;27.35;15.77;;;;;;;;;;4992276;28;20428;-78
2021/12/11 08:33:19;;;;;;;27.23;15.35;;;;;;;;;;4991026;28;20042;-77
2021/12/11 08:35:45;;;;;;;29.70;15.52;;;;;;;;;;4992357;28;20046;-79
2021/12/11 08:38:12;;;;;;;26.55;15.10;;;;;;;;;;4992314;28;20043;-78
2021/12/11 08:40:43;;;;;;;26.52;15.40;;;;;;;;;;4992761;28;20042;-79
2021/12/11 08:43:11;;;;;;;26.80;15.52;;;;;;;;;;4991547;28;20038;-79
2021/12/11 08:45:46;;;;;;;34.08;15.85;;;;;;;;;;4991785;28;20042;-78
2021/12/11 08:48:19;;;;;;;28.73;16.02;;;;;;;;;;4992079;28;20473;-78
2021/12/11 08:50:48;;;;;;;25.80;14.70;;;;;;;;;;4992014;28;20045;-78
2021/12/11 08:53:14;;;;;;;33.67;15.75;;;;;;;;;;4992194;28;20058;-78
2021/12/11 08:55:43;;;;;;;25.55;15.15;;;;;;;;;;4992058;28;20358;-78
2021/12/11 08:58:12;;;;;;;26.23;14.88;;;;;;;;;;4992638;28;20042;-78
2021/12/11 09:00:46;;;;;;;27.90;14.50;;;;;;;;;;4991983;28;20042;-79
2021/12/11 09:03:28;;;;;;;27.48;15.15;;;;;;;;;;4991912;28;20393;-79
2021/12/11 09:05:59;;;;;;;;;;;;;;;;;;4992381;28;20042;-79
2021/12/11 09:08:28;;;;;;;28.65;16.52;;;;;;;;;;4990868;28;19920;-79
2021/12/11 09:11:10;;;;;;;28.15;16.35;;;;;;;;;;4991780;28;20045;-79
2021/12/11 09:13:50;;;;;;;29.45;16.75;;;;;;;;;;4991743;28;20035;-79
2021/12/11 09:16:38;;;;;;;28.52;15.48;;;;;;;;;;4991836;28;20046;-79
2021/12/11 09:19:31;;;;;;;27.67;15.75;;;;;;;;;;4991081;28;20050;-79
2021/12/11 09:22:15;;;;;;;31.92;16.67;;;;;;;;;;4991578;28;20046;-79
2021/12/11 09:24:57;;;;;;;26.77;15.82;;;;;;;;;;4991511;28;20487;-79
2021/12/11 09:27:28;;;;;;;28.90;15.63;;;;;;;;;;4991164;28;20053;-79
2021/12/11 09:30:03;;;;;;;27.42;15.52;;;;;;;;;;4990569;28;20400;-79
2021/12/11 09:32:49;;;;;;;26.48;16.08;;;;;;;;;;4992062;28;20042;-79
2021/12/11 09:35:27;;;;;;;24.92;14.93;;;;;;;;;;4991734;28;20049;-79
2021/12/11 09:38:05;;;;;;;29.50;16.00;;;;;;;;;;4991682;28;20401;-80
2021/12/11 09:40:36;;;;;;;26.58;15.52;;;;;;;;;;4991638;28;20046;-79
2021/12/11 09:43:03;;;;;;;27.63;16.38;;;;;;;;;;4991815;28;20530;-79
2021/12/11 09:45:38;;;;;;;30.02;16.38;;;;;;;;;;4991358;28;20030;-79
2021/12/11 09:48:09;;;;;;;31.25;15.15;;;;;;;;;;4991336;28;20043;-79
2021/12/11 09:50:55;;;;;;;28.40;13.77;;;;;;;;;;4991502;28;20499;-79
2021/12/11 09:53:25;;;;;;;19.95;11.23;;;;;;;;;;4991704;28;20045;-79
2021/12/11 09:55:51;;;;;;;24.20;11.82;;;;;;;;;;4990406;28;20045;-78
2021/12/11 09:58:22;;;;;;;22.80;11.07;;;;;;;;;;4995891;28;20038;-79
2021/12/11 10:00:50;;;;;;;20.85;11.15;;;;;;;;;;4996409;28;20038;-79
2021/12/11 10:03:20;;;;;;;21.08;10.98;;;;;;;;;;4997521;28;20220;-79
2021/12/11 10:05:55;;;;;;;20.90;11.20;;;;;;;;;;4995432;28;20026;-79
2021/12/11 10:08:30;;;;;;;19.65;9.75;;;;;;;;;;4995336;28;20034;-80
2021/12/11 10:11:19;;;;;;;19.38;11.05;;;;;;;;;;4995380;28;20476;-79
2021/12/11 10:13:57;;;;;;;16.15;9.80;;;;;;;;;;4995448;28;20392;-79
2021/12/11 10:16:27;;;;;;;19.88;9.75;;;;;;;;;;4995195;28;20033;-78
2021/12/11 10:18:54;;;;;;;16.88;9.10;;;;;;;;;;4994787;28;20037;-79
2021/12/11 10:21:19;;;;;;;17.00;9.55;;;;;;;;;;4995516;28;20041;-79
2021/12/11 10:23:49;;;;;;;16.98;9.32;;;;;;;;;;4994854;28;20397;-78
2021/12/11 10:26:18;;;;;;;16.00;9.38;;;;;;;;;;4995172;28;20057;-77
2021/12/11 10:28:49;;;;;;;14.45;7.90;;;;;;;;;;4994960;28;20023;-79
2021/12/11 10:31:24;;;;;;;18.30;9.32;;;;;;;;;;4995001;28;20030;-79
2021/12/11 10:33:51;;;;;;;16.33;8.70;;;;;;;;;;4995033;28;20049;-78
2021/12/11 10:36:21;;;;;;;16.92;8.80;;;;;;;;;;4994279;28;20046;-79
2021/12/11 10:38:48;;;;;;;14.82;8.45;;;;;;;;;;4993726;28;20042;-78
2021/12/11 10:41:15;;;;;;;15.57;8.15;;;;;;;;;;4994555;28;20479;-78
2021/12/11 10:43:47;;;;;;;18.15;8.95;;;;;;;;;;4994819;28;20030;-79
2021/12/11 10:46:16;;;;;;;16.75;9.32;;;;;;;;;;4994866;28;20034;-79
2021/12/11 10:48:43;;;;;;;14.27;8.68;;;;;;;;;;4994803;28;20037;-78
2021/12/11 10:51:19;;;;;;;14.00;8.85;;;;;;;;;;5009890;28;20042;-79
2021/12/11 10:53:50;;;;;;;16.95;10.02;;;;;;;;;;4994485;28;20042;-79
2021/12/11 10:56:19;;;;;;;14.87;9.07;;;;;;;;;;4993576;28;20053;-78
2021/12/11 10:58:56;;;;;;;15.20;9.80;;;;;;;;;;4994852;28;20480;-78
2021/12/11 11:01:34;;;;;;;17.48;10.40;;;;;;;;;;4995244;28;20034;-79
2021/12/11 11:04:11;;;;;;;16.40;9.27;;;;;;;;;;4995344;28;20041;-79
2021/12/11 11:06:37;;;;;;;14.88;9.30;;;;;;;;;;4994386;28;20041;-79
2021/12/11 11:09:12;;;;;;;15.57;9.02;;;;;;;;;;4994523;28;20031;-79
2021/12/11 11:11:39;;;;;;;14.02;9.25;;;;;;;;;;4995319;28;20037;-79
2021/12/11 11:14:07;;;;;;;12.77;8.20;;;;;;;;;;4994989;28;20048;-80
2021/12/11 11:16:34;;;;;;;13.13;8.57;;;;;;;;;;4994095;28;20034;-80
2021/12/11 11:19:01;;;;;;;15.00;9.00;;;;;;;;;;4993828;28;20030;-79
2021/12/11 11:21:33;;;;;;;13.38;8.15;;;;;;;;;;4994046;28;20034;-79
2021/12/11 11:24:01;;;;;;;11.55;7.82;;;;;;;;;;4993584;28;20050;-79
2021/12/11 11:26:33;;;;;;;12.55;9.15;;;;;;;;;;4992845;28;20377;-79
2021/12/11 11:29:00;;;;;;;13.13;8.38;;;;;;;;;;4993333;28;20034;-79
2021/12/11 11:31:36;;;;;;;12.93;8.10;;;;;;;;;;4994097;28;20046;-79
2021/12/11 11:34:06;;;;;;;13.50;8.30;;;;;;;;;;4993730;28;20476;-79
2021/12/11 11:36:33;;;;;;;14.90;9.52;;;;;;;;;;4993715;28;20153;-79
2021/12/11 11:39:01;;;;;;;13.13;8.20;;;;;;;;;;4994016;28;20460;-79
2021/12/11 11:41:31;;;;;;;13.13;8.02;;;;;;;;;;4993656;28;20045;-79
2021/12/11 11:43:58;;;;;;;15.75;7.97;;;;;;;;;;4993473;28;20043;-79
2021/12/11 11:46:24;;;;;;;14.15;8.82;;;;;;;;;;4992241;28;20042;-79
2021/12/11 11:48:54;;;;;;;12.07;8.68;;;;;;;;;;4995945;28;20034;-79
2021/12/11 11:51:34;;;;;;;14.57;8.75;;;;;;;;;;4995177;28;20519;-79
2021/12/11 11:54:02;;;;;;;17.00;8.90;;;;;;;;;;5007631;28;20050;-79
2021/12/11 11:56:31;;;;;;;13.15;7.90;;;;;;;;;;5017919;28;20042;-79
2021/12/11 11:58:57;;;;;;;14.98;8.40;;;;;;;;;;5014853;28;20034;-79
2021/12/11 12:01:38;;;;;;;15.52;9.25;;;;;;;;;;5018077;28;20034;-79
2021/12/11 12:04:08;;;;;;;14.15;8.70;;;;;;;;;;5016009;28;20042;-80
2021/12/11 12:06:35;;;;;;;16.37;9.63;;;;;;;;;;5015896;28;20046;-78
2021/12/11 12:09:05;;;;;;;15.30;9.13;;;;;;;;;;5013848;28;20045;-78
2021/12/11 12:11:34;;;;;;;16.43;8.87;;;;;;;;;;5010816;28;20042;-77
2021/12/11 12:14:02;;;;;;;17.50;10.88;;;;;;;;;;5012025;28;20067;-80
2021/12/11 12:16:33;;;;;;;17.38;10.13;;;;;;;;;;5017611;28;20076;-79
2021/12/11 12:18:59;;;;;;;15.85;9.75;;;;;;;;;;5012740;28;20052;-77
2021/12/11 12:21:26;;;;;;;18.42;10.10;;;;;;;;;;5016272;28;20030;-78
2021/12/11 12:23:52;;;;;;;19.48;9.50;;;;;;;;;;5017525;28;20046;-79
2021/12/11 12:26:22;;;;;;;17.48;9.50;;;;;;;;;;5006206;28;20053;-79
2021/12/11 12:28:49;;;;;;;18.70;10.32;;;;;;;;;;4996867;28;20461;-79
2021/12/11 12:31:38;;;;;;;24.80;13.20;;;;;;;;;;5006423;28;20022;-79
2021/12/11 12:34:05;;;;;;;20.92;11.05;;;;;;;;;;5015084;28;20049;-79
2021/12/11 12:36:32;;;;;;;18.30;9.55;;;;;;;;;;4996939;28;20049;-79
2021/12/11 12:38:59;;;;;;;18.05;9.88;;;;;;;;;;4996927;28;20473;-79
2021/12/11 12:41:32;;;;;;;21.77;10.52;;;;;;;;;;4996652;28;20461;-79
2021/12/11 12:44:17;;;;;;;18.08;10.07;;;;;;;;;;4995599;28;20469;-79
2021/12/11 12:46:45;;;;;;;21.08;11.65;;;;;;;;;;4995550;28;20042;-79
2021/12/11 12:49:12;;;;;;;21.42;9.75;;;;;;;;;;4992922;28;20458;-79
2021/12/11 12:51:38;;;;;;;17.35;10.07;;;;;;;;;;4994609;28;20038;-79
2021/12/11 12:54:10;;;;;;;19.15;8.70;;;;;;;;;;4993980;28;20026;-77
2021/12/11 12:56:41;;;;;;;18.30;10.27;;;;;;;;;;4994207;28;20038;-77
2021/12/11 12:59:25;;;;;;;17.00;9.20;;;;;;;;;;4993493;28;20042;-77
2021/12/11 13:01:59;;;;;;;17.83;9.27;;;;;;;;;;4993897;28;20477;-77
2021/12/11 13:04:32;;;;;;;21.27;11.52;;;;;;;;;;4994695;28;20476;-78
2021/12/11 13:07:03;;;;;;;18.58;10.40;;;;;;;;;;4993672;28;20503;-77
2021/12/11 13:09:40;;;;;;;21.10;11.73;;;;;;;;;;4994082;28;20405;-77
2021/12/11 13:12:14;;;;;;;19.02;10.88;;;;;;;;;;4991887;28;20038;-77
2021/12/11 13:14:40;;;;;;;21.70;10.93;;;;;;;;;;4991535;28;20492;-79
2021/12/11 13:17:17;;;;;;;21.30;11.15;;;;;;;;;;4991693;28;20049;-78
2021/12/11 13:19:47;;;;;;;19.38;9.98;;;;;;;;;;4995017;28;20034;-79
2021/12/11 13:22:21;;;;;;;18.77;10.57;;;;;;;;;;4993936;28;20041;-79
2021/12/11 13:24:50;;;;;;;17.92;9.77;;;;;;;;;;4991571;28;20449;-75
2021/12/11 13:27:20;;;;;;;17.23;9.52;;;;;;;;;;4974565;28;20507;-75
2021/12/11 13:29:52;;;;;;;21.52;11.27;;;;;;;;;;4990027;28;20031;-75
2021/12/11 13:32:25;;;;;;;21.60;10.55;;;;;;;;;;4980843;28;20043;-75
2021/12/11 13:34:59;;;;;;;20.00;10.45;;;;;;;;;;4980106;28;20046;-75
2021/12/11 13:37:28;;;;;;;20.15;10.43;;;;;;;;;;4993486;28;20067;-76
2021/12/11 13:39:56;;;;;;;20.08;10.40;;;;;;;;;;4996460;28;20775;-75
2021/12/11 13:42:28;;;;;;;20.92;10.27;;;;;;;;;;4979386;28;20067;-74
2021/12/11 13:45:06;;;;;;;16.85;8.82;;;;;;;;;;4980565;28;20050;-75
2021/12/11 13:47:35;;;;;;;18.48;9.90;;;;;;;;;;4980727;28;20477;-75
2021/12/11 13:50:08;;;;;;;17.63;9.93;;;;;;;;;;4993136;28;20053;-74
2021/12/11 13:52:34;;;;;;;20.15;10.00;;;;;;;;;;4992399;28;20030;-75
2021/12/11 13:55:01;;;;;;;17.55;9.50;;;;;;;;;;4992781;28;20500;-73
2021/12/11 13:57:27;;;;;;;18.35;9.90;;;;;;;;;;4999157;28;20058;-74
2021/12/11 14:00:00;;;;;;;18.15;9.95;;;;;;;;;;4997393;28;20061;-73
2021/12/11 14:02:26;;;;;;;18.40;10.73;;;;;;;;;;4998236;28;20039;-74
2021/12/11 14:04:56;;;;;;;20.50;9.95;;;;;;;;;;4996820;28;20030;-74
2021/12/11 14:07:24;;;;;;;20.30;10.38;;;;;;;;;;4997677;28;20038;-74
2021/12/11 14:09:53;;;;;;;19.63;9.88;;;;;;;;;;4998139;28;20456;-74
2021/12/11 14:12:33;;;;;;;20.08;10.05;;;;;;;;;;4998577;28;20484;-74
2021/12/11 14:15:00;;;;;;;17.13;9.57;;;;;;;;;;4998502;28;20042;-73
2021/12/11 14:17:27;;;;;;;17.98;9.43;;;;;;;;;;4998864;28;20057;-74
2021/12/11 14:19:54;;;;;;;16.67;8.75;;;;;;;;;;4999393;28;20030;-75
2021/12/11 14:22:23;;;;;;;17.40;9.23;;;;;;;;;;4997129;28;20042;-74
2021/12/11 14:24:50;;;;;;;16.83;8.68;;;;;;;;;;4996687;28;20057;-74
2021/12/11 14:27:18;;;;;;;17.73;9.70;;;;;;;;;;4997700;28;20034;-75
2021/12/11 14:29:49;;;;;;;18.02;9.23;;;;;;;;;;4996843;28;20057;-75
2021/12/11 14:32:19;;;;;;;17.23;9.43;;;;;;;;;;4997746;28;20488;-75
2021/12/11 14:34:46;;;;;;;19.27;10.00;;;;;;;;;;4997733;28;20046;-74
2021/12/11 14:37:12;;;;;;;18.83;9.68;;;;;;;;;;4999419;28;20053;-75
2021/12/11 14:39:45;;;;;;;19.10;8.95;;;;;;;;;;5012735;28;20036;-75
2021/12/11 14:42:13;;;;;;;17.52;10.10;;;;;;;;;;4995077;28;20046;-75
2021/12/11 14:44:39;;;;;;;20.00;9.45;;;;;;;;;;4993457;28;20034;-75
2021/12/11 14:47:08;;;;;;;17.42;9.77;;;;;;;;;;4995399;28;20029;-74
2021/12/11 14:49:35;;;;;;;20.63;9.85;;;;;;;;;;4995212;28;20380;-74
2021/12/11 14:52:05;;;;;;;23.63;10.50;;;;;;;;;;4994616;28;20034;-73
2021/12/11 14:54:31;;;;;;;19.20;9.70;;;;;;;;;;4994682;28;20042;-74
2021/12/11 14:56:59;;;;;;;20.23;10.40;;;;;;;;;;4994181;28;20042;-73